createdAt,value
2018-07-12T00:00:28.787Z,15.51
2018-07-12T00:03:30.880Z,15.51
2018-07-12T00:06:32.439Z,15.51
2018-07-12T00:09:34.464Z,15.51
2018-07-12T00:12:36.544Z,15.53
2018-07-12T00:15:38.648Z,15.55
2018-07-12T00:18:40.677Z,15.58
2018-07-12T00:21:42.763Z,15.65
2018-07-12T00:24:44.343Z,15.60
2018-07-12T00:27:46.326Z,15.58
2018-07-12T00:30:48.446Z,15.53
2018-07-12T00:33:50.531Z,15.50
2018-07-12T00:36:52.703Z,15.44
2018-07-12T00:39:54.683Z,15.44
2018-07-12T00:42:56.646Z,15.42
2018-07-12T00:45:58.696Z,15.38
2018-07-12T00:49:00.765Z,15.32
2018-07-12T00:52:02.718Z,15.24
2018-07-12T00:55:04.810Z,15.15
2018-07-12T00:58:06.436Z,15.05
2018-07-12T01:01:08.506Z,14.96
2018-07-12T01:04:09.984Z,14.81
2018-07-12T01:07:12.056Z,14.79
2018-07-12T01:10:14.044Z,14.67
2018-07-12T01:13:16.157Z,14.54
2018-07-12T01:16:18.169Z,14.51
2018-07-12T01:19:20.299Z,14.42
2018-07-12T01:22:22.317Z,14.38
2018-07-12T01:25:24.290Z,14.31
2018-07-12T01:28:26.392Z,14.25
2018-07-12T01:31:28.494Z,14.17
2018-07-12T01:34:30.043Z,14.16
2018-07-12T01:37:32.074Z,13.98
2018-07-12T01:40:33.680Z,13.84
2018-07-12T01:43:35.340Z,13.78
2018-07-12T01:46:36.924Z,13.70
2018-07-12T01:49:39.012Z,13.69
2018-07-12T01:52:40.996Z,13.60
2018-07-12T01:55:43.494Z,13.51
2018-07-12T01:58:45.470Z,13.42
2018-07-12T02:01:47.501Z,13.29
2018-07-12T02:04:49.545Z,13.22
2018-07-12T02:07:51.142Z,13.23
2018-07-12T02:10:52.667Z,13.40
2018-07-12T02:13:54.243Z,13.55
2018-07-12T02:16:56.254Z,13.65
2018-07-12T02:19:58.350Z,13.66
2018-07-12T02:23:00.440Z,13.66
2018-07-12T02:26:02.052Z,13.64
2018-07-12T02:29:03.542Z,13.66
2018-07-12T02:32:05.630Z,13.67
2018-07-12T02:35:08.749Z,13.66
2018-07-12T02:38:10.770Z,13.61
2018-07-12T02:41:12.759Z,13.55
2018-07-12T02:44:14.292Z,13.51
2018-07-12T02:47:16.548Z,13.40
2018-07-12T02:50:18.610Z,13.19
2018-07-12T02:53:20.129Z,13.11
2018-07-12T02:56:22.236Z,13.11
2018-07-12T02:59:25.366Z,13.02
2018-07-12T03:02:27.406Z,13.00
2018-07-12T03:05:29.457Z,12.92
2018-07-12T03:08:31.571Z,12.97
2018-07-12T03:11:33.754Z,12.98
2018-07-12T03:14:35.907Z,12.99
2018-07-12T03:17:37.923Z,12.98
2018-07-12T03:20:40.037Z,12.92
2018-07-12T03:23:42.027Z,12.94
2018-07-12T03:26:44.169Z,13.04
2018-07-12T03:29:46.189Z,13.30
2018-07-12T03:32:48.285Z,13.50
2018-07-12T03:35:50.297Z,13.63
2018-07-12T03:38:52.319Z,13.71
2018-07-12T03:41:53.999Z,13.74
2018-07-12T03:44:56.034Z,13.78
2018-07-12T03:47:58.178Z,13.81
2018-07-12T03:50:59.785Z,13.83
2018-07-12T03:54:01.917Z,13.76
2018-07-12T03:57:03.913Z,13.75
2018-07-12T04:00:05.929Z,13.80
2018-07-12T04:03:08.034Z,13.90
2018-07-12T04:06:10.130Z,14.09
2018-07-12T04:09:12.131Z,14.26
2018-07-12T04:12:13.777Z,14.33
2018-07-12T04:15:15.877Z,14.52
2018-07-12T04:18:18.059Z,15.43
2018-07-12T04:21:19.734Z,15.91
2018-07-12T04:24:21.722Z,16.25
2018-07-12T04:27:23.644Z,17.18
2018-07-12T04:30:25.666Z,18.42
2018-07-12T04:33:27.657Z,19.88
2018-07-12T04:36:29.804Z,20.80
2018-07-12T04:39:31.816Z,21.12
2018-07-12T04:42:33.782Z,19.63
2018-07-12T04:45:35.861Z,18.15
2018-07-12T04:48:37.969Z,17.19
2018-07-12T04:51:40.236Z,16.81
2018-07-12T04:54:42.313Z,16.47
2018-07-12T04:57:44.355Z,16.49
2018-07-12T05:00:46.352Z,16.52
2018-07-12T05:03:48.301Z,16.44
2018-07-12T05:06:49.939Z,16.31
2018-07-12T05:09:53.001Z,16.35
2018-07-12T05:12:55.117Z,16.46
2018-07-12T05:15:57.342Z,16.54
2018-07-12T05:18:59.541Z,16.64
2018-07-12T05:22:01.738Z,16.80
2018-07-12T05:25:05.407Z,17.03
2018-07-12T05:28:07.083Z,17.13
2018-07-12T05:31:12.133Z,17.20
2018-07-12T05:34:13.638Z,17.35
2018-07-12T05:37:17.767Z,17.49
2018-07-12T05:40:20.851Z,17.54
2018-07-12T05:43:25.015Z,17.14
2018-07-12T05:46:28.216Z,16.31
2018-07-12T05:49:32.329Z,16.62
2018-07-12T05:52:35.526Z,16.84
2018-07-12T05:55:38.551Z,17.02
2018-07-12T05:58:42.762Z,17.34
2018-07-12T06:01:57.398Z,18.03
2018-07-12T06:05:01.623Z,21.02
2018-07-12T06:08:04.758Z,20.13
2018-07-12T06:11:07.991Z,18.94
2018-07-12T06:14:11.455Z,18.64
2018-07-12T06:17:19.921Z,18.18
2018-07-12T06:20:24.147Z,17.79
2018-07-12T06:23:27.391Z,18.03
2018-07-12T06:26:31.852Z,18.25
2018-07-12T06:29:35.231Z,18.37
2018-07-12T06:32:40.288Z,18.34
2018-07-12T06:35:45.430Z,18.47
2018-07-12T06:38:52.498Z,18.91
2018-07-12T06:41:56.571Z,19.23
2018-07-12T06:45:06.274Z,19.03
2018-07-12T06:48:09.698Z,19.10
2018-07-12T06:51:12.998Z,19.06
2018-07-12T06:54:21.031Z,19.04
2018-07-12T06:57:24.098Z,19.31
2018-07-12T07:00:27.117Z,19.25
2018-07-12T07:03:30.213Z,19.43
2018-07-12T07:06:34.486Z,19.79
2018-07-12T07:09:37.799Z,21.55
2018-07-12T07:12:41.180Z,23.11
2018-07-12T07:15:45.713Z,22.15
2018-07-12T07:18:49.242Z,21.67
2018-07-12T07:21:54.603Z,20.91
2018-07-12T07:24:57.955Z,20.13
2018-07-12T07:28:02.475Z,20.18
2018-07-12T07:31:05.913Z,20.02
2018-07-12T07:34:13.816Z,19.78
2018-07-12T07:37:17.046Z,19.70
2018-07-12T07:40:20.055Z,19.72
2018-07-12T07:43:23.233Z,20.05
2018-07-12T07:46:26.242Z,20.86
2018-07-12T07:49:35.877Z,20.70
2018-07-12T07:52:42.345Z,21.04
2018-07-12T07:55:45.523Z,20.19
2018-07-12T07:58:48.805Z,20.59
2018-07-12T08:01:54.114Z,20.42
2018-07-12T08:04:57.324Z,20.09
2018-07-12T08:08:07.184Z,20.22
2018-07-12T08:11:13.530Z,19.91
2018-07-12T08:14:17.534Z,20.55
2018-07-12T08:17:26.371Z,20.50
2018-07-12T08:20:33.742Z,20.79
2018-07-12T08:23:37.604Z,21.06
2018-07-12T08:26:45.545Z,21.81
2018-07-12T08:29:48.934Z,21.35
2018-07-12T08:32:52.444Z,21.20
2018-07-12T08:35:56.926Z,21.45
2018-07-12T08:39:00.318Z,22.01
2018-07-12T08:42:03.628Z,21.55
2018-07-12T08:45:08.541Z,21.67
2018-07-12T08:48:15.857Z,21.83
2018-07-12T08:51:22.773Z,21.25
2018-07-12T08:54:27.142Z,21.93
2018-07-12T08:57:31.660Z,22.21
2018-07-12T09:00:35.335Z,23.38
2018-07-12T09:03:38.565Z,23.02
2018-07-12T09:06:41.577Z,21.24
2018-07-12T09:09:44.741Z,20.93
2018-07-12T09:12:48.822Z,21.67
2018-07-12T09:15:52.039Z,22.28
2018-07-12T09:18:55.154Z,21.82
2018-07-12T09:24:54.698Z,21.87
2018-07-12T09:27:57.378Z,21.93
2018-07-12T09:30:59.987Z,22.13
2018-07-12T09:34:02.429Z,21.84
2018-07-12T09:37:11.006Z,21.76
2018-07-12T09:40:16.615Z,21.97
2018-07-12T09:43:19.857Z,22.20
2018-07-12T09:46:27.654Z,23.56
2018-07-12T09:49:29.969Z,23.49
2018-07-12T09:52:33.231Z,22.98
2018-07-12T09:55:39.043Z,23.38
2018-07-12T09:58:42.020Z,24.95
2018-07-12T10:01:50.372Z,26.38
2018-07-12T10:04:52.805Z,25.78
2018-07-12T10:08:00.974Z,24.75
2018-07-12T10:11:06.065Z,23.20
2018-07-12T10:14:14.122Z,22.92
2018-07-12T10:17:22.051Z,23.05
2018-07-12T10:20:25.513Z,22.94
2018-07-12T10:23:27.669Z,23.03
2018-07-12T10:26:30.006Z,23.32
2018-07-12T10:29:32.255Z,23.83
2018-07-12T10:32:34.460Z,24.03
2018-07-12T10:35:36.762Z,24.46
2018-07-12T10:38:39.939Z,25.61
2018-07-12T10:41:42.217Z,23.76
2018-07-12T10:44:51.253Z,23.39
2018-07-12T10:47:53.551Z,23.61
2018-07-12T10:50:55.900Z,23.66
2018-07-12T10:53:58.163Z,24.10
2018-07-12T10:57:00.362Z,24.20
2018-07-12T11:00:05.336Z,24.72
2018-07-12T11:03:08.070Z,25.30
2018-07-12T11:06:10.502Z,23.71
2018-07-12T11:09:12.968Z,23.43
2018-07-12T11:12:15.264Z,23.91
2018-07-12T11:15:17.591Z,25.15
2018-07-12T11:18:19.877Z,26.00
2018-07-12T11:21:22.180Z,25.90
2018-07-12T11:24:24.481Z,24.14
2018-07-12T11:27:28.770Z,24.22
2018-07-12T11:30:31.716Z,23.66
2018-07-12T11:33:40.048Z,23.84
2018-07-12T11:36:42.387Z,24.79
2018-07-12T11:39:44.660Z,26.23
2018-07-12T11:43:18.246Z,25.99
2018-07-12T11:46:20.566Z,25.73
2018-07-12T11:49:22.890Z,25.10
2018-07-12T11:52:25.155Z,25.54
2018-07-12T11:55:27.573Z,25.30
2018-07-12T11:58:31.353Z,24.83
2018-07-12T12:01:34.850Z,25.18
2018-07-12T12:04:50.494Z,25.57
2018-07-12T12:08:00.962Z,25.90
2018-07-12T12:14:30.535Z,25.83
2018-07-12T12:23:21.852Z,26.05
2018-07-12T12:26:34.947Z,25.66
2018-07-12T12:29:56.586Z,25.75
2018-07-12T12:33:12.191Z,25.26
2018-07-12T12:36:26.550Z,26.08
2018-07-12T12:39:54.191Z,26.26
2018-07-12T12:42:59.624Z,26.43
2018-07-12T12:46:02.837Z,24.88
2018-07-12T12:49:12.670Z,25.45
2018-07-12T12:52:24.681Z,25.22
2018-07-12T12:55:26.938Z,25.58
2018-07-12T12:58:36.046Z,27.06
2018-07-12T13:01:38.257Z,28.56
2018-07-12T13:04:46.165Z,28.61
2018-07-12T13:07:51.944Z,28.67
2018-07-12T13:10:54.205Z,28.01
2018-07-12T13:14:15.931Z,27.67
2018-07-12T13:17:20.169Z,27.63
2018-07-12T13:20:22.370Z,27.26
2018-07-12T13:23:29.795Z,26.25
2018-07-12T13:26:44.162Z,25.83
2018-07-12T13:29:51.227Z,26.23
2018-07-12T13:32:53.508Z,26.44
2018-07-12T13:35:57.734Z,26.64
2018-07-12T13:38:59.940Z,26.82
2018-07-12T13:42:04.272Z,26.56
2018-07-12T13:45:12.293Z,26.65
2018-07-12T13:48:15.517Z,25.28
2018-07-12T13:51:17.821Z,25.77
2018-07-12T13:54:21.118Z,25.68
2018-07-12T13:57:24.456Z,25.08
2018-07-12T14:00:27.690Z,25.70
2018-07-12T14:03:36.257Z,26.55
2018-07-12T14:06:41.559Z,26.71
2018-07-12T14:09:43.745Z,26.26
2018-07-12T14:12:47.036Z,26.89
2018-07-12T14:15:50.333Z,27.16
2018-07-12T14:18:52.660Z,28.40
2018-07-12T14:21:55.881Z,27.96
2018-07-12T14:24:58.066Z,27.90
2018-07-12T14:28:02.385Z,28.53
2018-07-12T14:31:04.609Z,27.02
2018-07-12T14:34:07.824Z,26.90
2018-07-12T14:37:14.417Z,26.34
2018-07-12T14:40:16.613Z,26.56
2018-07-12T14:43:18.886Z,26.94
2018-07-12T14:46:22.174Z,27.65
2018-07-12T14:49:32.077Z,27.63
2018-07-12T14:52:36.383Z,28.41
2018-07-12T14:55:42.203Z,26.87
2018-07-12T14:58:46.447Z,27.05
2018-07-12T15:01:49.688Z,27.73
2018-07-12T15:04:51.924Z,28.09
2018-07-12T15:07:58.165Z,27.49
2018-07-12T15:11:00.393Z,27.62
2018-07-12T15:14:03.656Z,25.90
2018-07-12T15:17:06.870Z,25.40
2018-07-12T15:20:13.452Z,25.10
2018-07-12T15:23:15.709Z,25.34
2018-07-12T15:26:20.053Z,24.82
2018-07-12T15:29:22.220Z,25.16
2018-07-12T15:32:26.432Z,26.10
2018-07-12T15:35:28.704Z,27.72
2018-07-12T15:38:31.001Z,26.51
2018-07-12T15:41:37.104Z,25.75
2018-07-12T15:44:40.365Z,25.47
2018-07-12T15:47:42.613Z,25.92
2018-07-12T15:50:44.814Z,26.92
2018-07-12T15:53:52.865Z,26.91
2018-07-12T15:56:56.061Z,27.20
2018-07-12T15:59:58.326Z,26.92
2018-07-12T16:03:00.598Z,26.34
2018-07-12T16:06:03.973Z,25.89
2018-07-12T16:09:09.001Z,25.74
2018-07-12T16:12:11.232Z,25.82
2018-07-12T16:15:14.433Z,25.97
2018-07-12T16:18:17.745Z,26.17
2018-07-12T16:21:19.965Z,25.92
2018-07-12T16:24:23.148Z,25.24
2018-07-12T16:27:29.928Z,25.50
2018-07-12T16:30:32.226Z,25.67
2018-07-12T16:33:34.430Z,25.21
2018-07-12T16:36:36.642Z,24.86
2018-07-12T16:39:39.843Z,24.98
2018-07-12T16:42:43.721Z,24.86
2018-07-12T16:45:46.941Z,24.77
2018-07-12T16:48:49.132Z,24.70
2018-07-12T16:51:51.625Z,24.50
2018-07-12T16:54:53.918Z,24.27
2018-07-12T16:57:57.324Z,24.33
2018-07-12T17:00:59.552Z,24.32
2018-07-12T17:04:03.851Z,24.40
2018-07-12T17:07:08.116Z,24.49
2018-07-12T17:10:11.377Z,24.64
2018-07-12T17:13:13.651Z,24.96
2018-07-12T17:16:17.893Z,25.27
2018-07-12T17:19:37.233Z,25.76
2018-07-12T17:22:39.417Z,26.35
2018-07-12T17:25:41.630Z,26.06
2018-07-12T17:28:44.969Z,26.02
2018-07-12T17:31:49.201Z,26.67
2018-07-12T17:34:54.991Z,26.25
2018-07-12T17:37:57.220Z,26.77
2018-07-12T17:40:59.535Z,26.33
2018-07-12T17:44:03.809Z,25.90
2018-07-12T17:47:06.163Z,25.81
2018-07-12T17:50:08.352Z,26.17
2018-07-12T17:53:10.648Z,25.68
2018-07-12T17:56:12.865Z,25.37
2018-07-12T17:59:26.498Z,24.88
2018-07-12T18:02:31.200Z,24.56
2018-07-12T18:05:33.512Z,24.50
2018-07-12T18:08:35.881Z,24.40
2018-07-12T18:12:57.084Z,23.96
2018-07-12T18:16:49.165Z,23.66
2018-07-12T18:23:23.308Z,23.24
2018-07-12T18:26:56.199Z,23.20
2018-07-12T18:30:10.855Z,23.12
2018-07-12T18:33:13.494Z,23.05
2018-07-12T18:36:16.179Z,23.09
2018-07-12T18:39:18.730Z,23.04
2018-07-12T18:42:21.328Z,22.98
2018-07-12T18:45:23.689Z,22.80
2018-07-12T18:48:25.945Z,22.59
2018-07-12T18:51:28.234Z,22.39
2018-07-12T18:54:30.649Z,22.18
2018-07-12T18:57:37.227Z,22.02
2018-07-12T19:00:39.623Z,21.87
2018-07-12T19:03:41.981Z,21.80
2018-07-12T19:06:44.398Z,21.87
2018-07-12T19:09:46.797Z,21.80
2018-07-12T19:12:49.156Z,21.61
2018-07-12T19:15:51.813Z,21.38
2018-07-12T19:18:54.462Z,21.20
2018-07-12T19:21:57.151Z,21.02
2018-07-12T19:24:59.779Z,20.85
2018-07-12T19:28:02.434Z,20.66
2018-07-12T19:31:05.157Z,20.36
2018-07-12T19:34:08.886Z,20.14
2018-07-12T19:37:11.447Z,19.86
2018-07-12T19:40:14.275Z,19.55
2018-07-12T19:43:16.794Z,19.25
2018-07-12T19:46:19.319Z,19.04
2018-07-12T19:49:21.920Z,18.82
2018-07-12T19:52:24.363Z,18.55
2018-07-12T19:55:26.721Z,18.36
2018-07-12T19:58:29.089Z,18.17
2018-07-12T20:01:31.443Z,17.99
2018-07-12T20:04:33.749Z,17.75
2018-07-12T20:07:37.067Z,17.52
2018-07-12T20:10:39.431Z,17.35
2018-07-12T20:13:42.013Z,17.21
2018-07-12T20:16:45.506Z,17.12
2018-07-12T20:19:48.023Z,17.15
2018-07-12T20:22:51.500Z,17.12
2018-07-12T20:25:53.865Z,17.00
2018-07-12T20:28:56.347Z,16.85
2018-07-12T20:31:58.701Z,16.68
2018-07-12T20:35:01.145Z,16.49
2018-07-12T20:38:03.473Z,16.31
2018-07-12T20:41:10.168Z,16.13
2018-07-12T20:44:12.577Z,15.89
2018-07-12T20:47:14.845Z,15.67
2018-07-12T20:50:17.230Z,15.60
2018-07-12T20:53:19.622Z,15.65
2018-07-12T20:56:21.959Z,15.79
2018-07-12T20:59:24.503Z,15.97
2018-07-12T21:02:27.099Z,16.06
2018-07-12T21:05:29.550Z,16.04
2018-07-12T21:08:31.952Z,15.94
2018-07-12T21:11:34.326Z,15.84
2018-07-12T21:14:36.759Z,15.73
2018-07-12T21:17:39.272Z,15.63
2018-07-12T21:20:41.807Z,15.68
2018-07-12T21:23:44.317Z,15.66
2018-07-12T21:26:46.554Z,15.54
2018-07-12T21:29:48.881Z,15.47
2018-07-12T21:32:51.205Z,15.41
2018-07-12T21:35:53.599Z,15.35
2018-07-12T21:38:56.081Z,15.33
2018-07-12T21:41:58.425Z,15.33
2018-07-12T21:45:00.938Z,15.35
2018-07-12T21:48:03.372Z,15.47
2018-07-12T21:51:05.810Z,15.40
2018-07-12T21:54:08.815Z,15.34
2018-07-12T21:57:11.434Z,15.32
2018-07-12T22:00:15.076Z,15.29
2018-07-12T22:03:17.809Z,15.27
2018-07-12T22:08:33.516Z,15.33
2018-07-12T22:11:39.571Z,15.36
2018-07-12T22:14:41.877Z,15.11
2018-07-12T22:17:46.257Z,14.95
2018-07-12T22:20:48.636Z,14.88
2018-07-12T22:23:51.022Z,14.91
2018-07-12T22:26:57.908Z,14.98
2018-07-12T22:30:04.130Z,15.02
2018-07-12T22:33:08.888Z,14.91
2018-07-12T22:36:11.389Z,14.88
2018-07-12T22:39:19.091Z,14.83
2018-07-12T22:42:21.525Z,14.78
2018-07-12T22:45:24.109Z,14.57
2018-07-12T22:48:27.629Z,14.60
2018-07-12T22:51:39.880Z,14.66
2018-07-12T22:54:42.460Z,14.75
2018-07-12T22:57:46.020Z,14.80
2018-07-12T23:00:49.614Z,14.80
2018-07-12T23:03:54.010Z,14.81
2018-07-12T23:06:56.610Z,14.83
2018-07-12T23:09:59.023Z,14.87
2018-07-12T23:13:02.599Z,14.82
2018-07-12T23:16:05.103Z,14.82
2018-07-12T23:19:07.703Z,14.71
2018-07-12T23:22:10.175Z,14.78
2018-07-12T23:25:12.631Z,14.82
2018-07-12T23:28:14.979Z,14.78
2018-07-12T23:31:18.411Z,14.72
2018-07-12T23:34:20.982Z,14.64
2018-07-12T23:37:23.589Z,14.63
2018-07-12T23:40:26.137Z,14.64
2018-07-12T23:43:28.637Z,14.54
2018-07-12T23:46:31.097Z,14.46
2018-07-12T23:49:33.465Z,14.40
2018-07-12T23:52:35.896Z,14.37
2018-07-12T23:55:38.251Z,14.35
2018-07-12T23:58:40.638Z,14.28
